Offutt Air Force Base

Airport
ICAO code: 
KOFF
Summary
ICAO Region: 
NAM
Territory: 
Location: 
Omaha, Nebraska,
Coordinates: 
Aerial View: 
41° 7' 10" N, 95° 54' 31" W
Metar
Observation
KOFF 040556Z 00000KT 10SM CLR 05/01 A3026 RMK AO2A SLP256 T00470005 10101 20047 401520039 52014 PWINO PNO FZRANO TSNO VISNO RWY12 CHINO RWY12 $
Station
Omaha / Offutt Air Force Base
Date/Time
2021-12-04 05:56:00
Wind direction
Wind speed
00 kts
Lowest cloud amount
n/a
Temperature
4.7°C
Dew point
0.5°C
Humidity
74%
Weather condition
n/a

Description

Offutt Air Force Base is a United States Air Force installation located in Sarpy County, Nebraska, 15 km south of the central business district of Omaha, Nebraska.

Climatology

Humid continental climate (Köppen climate classification Dfa) - characterized by four seasons: cold, windy, snowy winters, mild springs, hot, humid summers, and crisp and relatively short autumns. Precipitation reaches its lowest in January and February and peaks in summer and latter half of spring.

Runways

Designator Length Width Surface Rops
12/30 3566 91 PEM Yes/Yes
Airport map: 
Aerial View: 

SKYbrary Partners:

Safety knowledge contributed by: